Time;durP1;ratioP1;P1;durP2;ratioP2;P2;SDS_P1;SDS_P2;PMS_P1;PMS_P2;Temp;Humidity;BMP_temperature;BMP_pressure;BME280_temperature;BME280_humidity;BME280_pressure;Samples;Min_cycle;Max_cycle;Signal;HPM_P1;HPM_P2
2021/06/22 05:01:51;;;;;;;9.97;8.20;;;;;;;;;;5418765;23;20220;-69
2021/06/22 05:04:37;;;;;;;10.87;8.50;;;;;;;;;;4993222;28;20323;-68
2021/06/22 05:07:22;;;;;;;10.13;8.37;;;;;;;;;;4987705;28;20216;-69
2021/06/22 05:10:08;;;;;;;7.97;7.23;;;;;;;;;;4974280;28;20705;-69
2021/06/22 05:12:53;;;;;;;12.67;8.67;;;;;;;;;;4954375;28;20577;-69
2021/06/22 05:15:38;;;;;;;12.20;8.10;;;;;;;;;;5007593;23;20733;-67
2021/06/22 05:18:24;;;;;;;10.50;8.07;;;;;;;;;;4992977;28;20343;-67
2021/06/22 05:21:09;;;;;;;12.10;9.15;;;;;;;;;;4992354;28;20542;-66
2021/06/22 05:23:54;;;;;;;11.07;7.97;;;;;;;;;;4991975;28;20251;-66
2021/06/22 05:26:40;;;;;;;10.23;7.93;;;;;;;;;;4991494;28;20251;-66
2021/06/22 05:29:25;;;;;;;9.80;8.20;;;;;;;;;;4992855;28;20334;-66
2021/06/22 05:32:10;;;;;;;12.57;7.90;;;;;;;;;;4992680;28;20290;-66
2021/06/22 05:34:57;;;;;;;9.37;7.57;;;;;;;;;;4992199;28;20965;-66
2021/06/22 05:37:42;;;;;;;11.40;8.10;;;;;;;;;;4992453;28;20203;-66
2021/06/22 05:40:27;;;;;;;10.20;8.23;;;;;;;;;;4992608;28;20214;-66
2021/06/22 05:43:13;;;;;;;12.83;8.50;;;;;;;;;;4991588;28;20886;-66
2021/06/22 05:45:57;;;;;;;14.33;9.37;;;;;;;;;;4992401;28;20226;-66
2021/06/22 05:48:42;;;;;;;14.23;9.50;;;;;;;;;;4992478;28;20728;-66
2021/06/22 05:51:28;;;;;;;10.60;9.47;;;;;;;;;;4992380;28;20298;-67
2021/06/22 05:54:13;;;;;;;11.27;10.23;;;;;;;;;;4991622;28;20262;-66
2021/06/22 05:56:58;;;;;;;16.02;11.00;;;;;;;;;;4991272;28;20429;-66
2021/06/22 05:59:43;;;;;;;11.67;9.53;;;;;;;;;;4992301;28;20267;-66
2021/06/22 06:02:28;;;;;;;13.53;10.30;;;;;;;;;;4991259;28;20211;-66
2021/06/22 06:05:13;;;;;;;11.97;10.13;;;;;;;;;;4972726;28;20737;-66
2021/06/22 06:08:00;;;;;;;12.40;10.00;;;;;;;;;;4983315;28;20212;-66
2021/06/22 06:10:45;;;;;;;15.53;9.93;;;;;;;;;;4991861;28;20209;-66
2021/06/22 06:13:30;;;;;;;13.70;10.67;;;;;;;;;;4991078;28;20210;-67
2021/06/22 06:16:15;;;;;;;12.98;11.13;;;;;;;;;;4990857;28;20417;-66
2021/06/22 06:19:00;;;;;;;16.03;10.90;;;;;;;;;;4991807;28;20221;-66
2021/06/22 06:21:46;;;;;;;11.43;9.77;;;;;;;;;;4991383;28;20342;-66
2021/06/22 06:24:32;;;;;;;11.40;9.80;;;;;;;;;;4991002;28;20595;-66
2021/06/22 06:27:18;;;;;;;12.17;10.73;;;;;;;;;;4991737;28;20341;-66
2021/06/22 06:30:05;;;;;;;12.03;10.83;;;;;;;;;;4991727;28;20213;-66
2021/06/22 06:32:50;;;;;;;13.67;10.20;;;;;;;;;;4990992;28;20718;-66
2021/06/22 06:35:36;;;;;;;16.03;10.70;;;;;;;;;;4990873;28;20365;-66
2021/06/22 06:38:21;;;;;;;11.60;10.43;;;;;;;;;;4985220;28;20482;-65
2021/06/22 06:41:07;;;;;;;12.77;10.57;;;;;;;;;;4989765;28;20207;-66
2021/06/22 06:43:52;;;;;;;13.40;10.67;;;;;;;;;;4986533;28;20210;-66
2021/06/22 06:46:37;;;;;;;11.50;10.27;;;;;;;;;;4990318;28;20214;-66
2021/06/22 06:49:22;;;;;;;13.10;10.97;;;;;;;;;;4989960;28;20345;-66
2021/06/22 06:52:07;;;;;;;13.70;11.07;;;;;;;;;;4991669;28;20341;-66
2021/06/22 06:54:52;;;;;;;12.70;11.43;;;;;;;;;;4990015;28;20319;-66
2021/06/22 06:57:38;;;;;;;13.00;11.70;;;;;;;;;;4991188;28;20769;-66
2021/06/22 07:00:24;;;;;;;13.37;11.97;;;;;;;;;;4971854;28;20226;-66
2021/06/22 07:03:09;;;;;;;11.77;10.67;;;;;;;;;;4975024;28;20213;-66
2021/06/22 07:05:53;;;;;;;12.80;11.50;;;;;;;;;;4991262;28;20295;-66
2021/06/22 07:08:38;;;;;;;17.65;13.70;;;;;;;;;;4990877;28;20553;-65
2021/06/22 07:11:23;;;;;;;19.63;12.60;;;;;;;;;;4991076;28;20211;-66
2021/06/22 07:14:13;;;;;;;13.80;12.10;;;;;;;;;;4990184;28;20246;-67
2021/06/22 07:16:58;;;;;;;12.17;10.83;;;;;;;;;;4990929;28;20222;-67
2021/06/22 07:19:43;;;;;;;15.43;10.90;;;;;;;;;;4990761;28;20694;-66
2021/06/22 07:22:28;;;;;;;16.10;13.50;;;;;;;;;;4990597;28;20227;-69
2021/06/22 07:25:13;;;;;;;17.93;13.93;;;;;;;;;;4990378;28;20229;-67
2021/06/22 07:28:00;;;;;;;14.70;13.10;;;;;;;;;;4990877;28;20276;-67
2021/06/22 07:30:46;;;;;;;12.70;11.37;;;;;;;;;;4990538;28;20269;-67
2021/06/22 07:33:31;;;;;;;15.40;11.73;;;;;;;;;;4990171;28;20528;-67
2021/06/22 07:36:16;;;;;;;14.87;12.53;;;;;;;;;;4990271;28;20687;-66
2021/06/22 07:39:01;;;;;;;15.73;11.80;;;;;;;;;;4990772;28;20242;-67
2021/06/22 07:41:46;;;;;;;12.43;11.07;;;;;;;;;;4990924;28;20322;-67
2021/06/22 07:44:31;;;;;;;16.00;12.50;;;;;;;;;;4990206;28;20301;-67
2021/06/22 07:47:17;;;;;;;16.97;12.33;;;;;;;;;;4974686;28;20236;-67
2021/06/22 07:50:02;;;;;;;12.73;11.43;;;;;;;;;;4975386;28;20214;-67
2021/06/22 07:52:47;;;;;;;12.17;10.97;;;;;;;;;;4990388;28;20302;-67
2021/06/22 07:55:32;;;;;;;11.93;10.83;;;;;;;;;;4994635;28;20719;-67
2021/06/22 07:58:17;;;;;;;12.33;10.57;;;;;;;;;;4994399;28;20725;-67
2021/06/22 08:01:01;;;;;;;13.10;11.20;;;;;;;;;;4993964;28;20259;-67
2021/06/22 08:03:48;;;;;;;12.70;11.40;;;;;;;;;;4992945;28;20429;-67
2021/06/22 08:06:33;;;;;;;12.00;10.67;;;;;;;;;;4994540;28;20780;-67
2021/06/22 08:09:18;;;;;;;12.43;10.57;;;;;;;;;;4994688;28;20293;-67
2021/06/22 08:12:03;;;;;;;13.57;11.63;;;;;;;;;;4994345;28;20211;-66
2021/06/22 08:14:48;;;;;;;12.83;11.50;;;;;;;;;;4993588;28;20310;-67
2021/06/22 08:17:33;;;;;;;13.33;11.37;;;;;;;;;;4993940;28;20628;-67
2021/06/22 08:20:19;;;;;;;12.30;10.90;;;;;;;;;;4993746;28;20615;-67
2021/06/22 08:23:05;;;;;;;11.77;10.67;;;;;;;;;;4992935;28;20698;-66
2021/06/22 08:25:52;;;;;;;12.90;11.53;;;;;;;;;;4994049;28;20270;-67
2021/06/22 08:28:38;;;;;;;12.30;10.97;;;;;;;;;;4993642;28;20199;-65
2021/06/22 08:31:22;;;;;;;14.87;11.73;;;;;;;;;;4993886;28;20223;-67
2021/06/22 08:34:07;;;;;;;15.23;11.43;;;;;;;;;;4992590;28;20223;-66
2021/06/22 08:36:53;;;;;;;11.37;10.27;;;;;;;;;;4993732;28;20278;-66
2021/06/22 08:39:38;;;;;;;12.50;11.20;;;;;;;;;;4991950;28;20568;-65
2021/06/22 08:42:23;;;;;;;13.03;11.93;;;;;;;;;;4993308;28;20203;-66
2021/06/22 08:45:10;;;;;;;15.63;11.90;;;;;;;;;;4993135;28;20225;-67
2021/06/22 08:47:55;;;;;;;14.27;11.57;;;;;;;;;;4993395;28;20634;-67
2021/06/22 08:50:40;;;;;;;12.03;10.77;;;;;;;;;;4992660;28;20211;-67
2021/06/22 08:53:27;;;;;;;10.80;9.90;;;;;;;;;;4992893;28;20223;-67
2021/06/22 08:56:12;;;;;;;12.33;11.13;;;;;;;;;;4993447;28;20214;-67
2021/06/22 08:58:57;;;;;;;14.00;12.68;;;;;;;;;;4991075;28;20445;-67
2021/06/22 09:01:42;;;;;;;13.53;12.17;;;;;;;;;;4993517;28;20227;-68
2021/06/22 09:04:27;;;;;;;12.90;11.60;;;;;;;;;;4992067;28;20783;-66
2021/06/22 09:07:33;;;;;;;10.90;9.93;;;;;;;;;;4993387;28;20732;-68
2021/06/22 09:10:20;;;;;;;14.70;11.17;;;;;;;;;;4992448;28;20319;-66
2021/06/22 09:13:15;;;;;;;11.47;10.30;;;;;;;;;;4990191;28;20250;-67
2021/06/22 09:16:00;;;;;;;13.23;10.73;;;;;;;;;;4993573;28;20206;-68
2021/06/22 09:18:45;;;;;;;12.57;10.87;;;;;;;;;;4981199;28;20223;-75
2021/06/22 09:21:38;;;;;;;11.80;10.70;;;;;;;;;;4992475;28;20561;-72
2021/06/22 09:24:24;;;;;;;10.67;9.73;;;;;;;;;;4991252;28;20362;-71
2021/06/22 09:27:11;;;;;;;12.37;10.30;;;;;;;;;;4992573;28;20207;-73
2021/06/22 09:29:56;;;;;;;11.07;9.93;;;;;;;;;;4992440;28;20743;-69
2021/06/22 09:32:41;;;;;;;11.10;10.10;;;;;;;;;;4972823;28;20212;-72
2021/06/22 09:35:26;;;;;;;12.90;11.03;;;;;;;;;;4973280;28;20227;-72
2021/06/22 09:38:12;;;;;;;12.07;10.73;;;;;;;;;;4973019;28;20278;-72
2021/06/22 09:41:08;;;;;;;12.93;10.43;;;;;;;;;;4976967;28;20222;-72
2021/06/22 09:44:00;;;;;;;12.70;10.47;;;;;;;;;;4988704;28;20400;-71
2021/06/22 09:46:46;;;;;;;11.00;9.67;;;;;;;;;;4992470;28;20211;-72
2021/06/22 09:49:32;;;;;;;12.73;10.57;;;;;;;;;;4991871;28;20286;-72
2021/06/22 09:52:26;;;;;;;12.10;10.30;;;;;;;;;;4991788;28;20425;-74
2021/06/22 09:55:12;;;;;;;9.80;8.77;;;;;;;;;;4992159;28;20593;-72
2021/06/22 09:57:56;;;;;;;10.40;9.13;;;;;;;;;;4991883;28;20307;-73
2021/06/22 10:00:43;;;;;;;12.00;9.93;;;;;;;;;;4992458;28;20646;-73
2021/06/22 10:03:34;;;;;;;10.67;9.63;;;;;;;;;;4991009;28;20211;-73
2021/06/22 10:06:19;;;;;;;10.33;9.37;;;;;;;;;;4991306;28;20848;-72
2021/06/22 10:09:05;;;;;;;11.53;10.33;;;;;;;;;;4991468;28;20234;-73
2021/06/22 10:12:05;;;;;;;11.97;10.10;;;;;;;;;;4991871;28;20220;-76
2021/06/22 10:14:51;;;;;;;10.57;9.47;;;;;;;;;;4990858;28;20238;-75
2021/06/22 10:17:38;;;;;;;11.00;9.90;;;;;;;;;;4991451;28;20218;-75
2021/06/22 10:20:23;;;;;;;10.77;9.80;;;;;;;;;;4992756;28;20206;-75
2021/06/22 10:23:08;;;;;;;12.65;9.88;;;;;;;;;;4991338;28;20525;-75
2021/06/22 10:25:54;;;;;;;10.50;9.37;;;;;;;;;;4981037;28;20592;-75
2021/06/22 10:28:39;;;;;;;10.03;9.03;;;;;;;;;;4991047;28;20342;-70
2021/06/22 10:31:24;;;;;;;9.93;9.03;;;;;;;;;;4989597;28;20207;-70
2021/06/22 10:34:10;;;;;;;11.63;9.30;;;;;;;;;;4989490;28;20302;-71
2021/06/22 10:36:57;;;;;;;11.00;9.80;;;;;;;;;;4985071;28;20211;-71
2021/06/22 10:39:48;;;;;;;10.60;9.00;;;;;;;;;;4987813;28;20228;-71
2021/06/22 10:42:43;;;;;;;12.13;9.83;;;;;;;;;;4971789;28;20583;-70
2021/06/22 10:45:28;;;;;;;10.33;9.43;;;;;;;;;;4986746;28;20278;-72
2021/06/22 10:48:18;;;;;;;11.10;10.10;;;;;;;;;;4990101;28;21117;-73
2021/06/22 10:51:26;;;;;;;11.00;9.43;;;;;;;;;;4991399;28;20204;-73
2021/06/22 10:54:13;;;;;;;11.07;10.17;;;;;;;;;;4990349;28;20594;-73
2021/06/22 10:56:59;;;;;;;10.97;9.97;;;;;;;;;;4990984;28;20207;-66
2021/06/22 10:59:59;;;;;;;15.00;10.37;;;;;;;;;;4990935;28;20355;-65
2021/06/22 11:03:03;;;;;;;10.33;9.37;;;;;;;;;;4990426;28;20671;-66
2021/06/22 11:05:49;;;;;;;9.57;7.43;;;;;;;;;;4990990;28;20226;-65
2021/06/22 11:08:37;;;;;;;10.90;9.90;;;;;;;;;;4991015;28;20203;-66
2021/06/22 11:11:24;;;;;;;11.77;8.73;;;;;;;;;;4990549;28;20355;-66
2021/06/22 11:14:10;;;;;;;9.33;8.50;;;;;;;;;;4990252;28;20231;-66
2021/06/22 11:16:55;;;;;;;12.10;7.73;;;;;;;;;;4990798;28;20199;-65
2021/06/22 11:20:03;;;;;;;7.33;6.63;;;;;;;;;;4988888;23;20245;-71
2021/06/22 11:23:05;;;;;;;11.40;7.50;;;;;;;;;;4947124;29;20212;-72
2021/06/22 11:25:53;;;;;;;9.07;8.23;;;;;;;;;;4947682;28;20215;-70
2021/06/22 11:28:52;;;;;;;9.53;8.67;;;;;;;;;;4940005;29;20537;-72
2021/06/22 11:31:38;;;;;;;9.60;8.80;;;;;;;;;;4956529;29;20200;-71
2021/06/22 11:34:25;;;;;;;9.37;8.37;;;;;;;;;;4954961;29;20228;-73
2021/06/22 11:37:19;;;;;;;16.47;10.13;;;;;;;;;;4936738;29;20229;-72
2021/06/22 11:40:05;;;;;;;9.45;8.68;;;;;;;;;;4944538;29;20786;-72
2021/06/22 11:43:08;;;;;;;11.97;9.10;;;;;;;;;;4954795;29;20295;-72
2021/06/22 11:46:26;;;;;;;9.50;8.60;;;;;;;;;;4955985;29;20208;-72
2021/06/22 11:49:11;;;;;;;14.47;8.37;;;;;;;;;;4955279;28;20229;-72
2021/06/22 11:52:08;;;;;;;9.43;8.30;;;;;;;;;;4955778;29;20240;-72
2021/06/22 11:55:00;;;;;;;12.63;9.57;;;;;;;;;;4953965;29;20626;-71
2021/06/22 11:57:46;;;;;;;10.30;9.40;;;;;;;;;;4955677;29;20212;-72
2021/06/22 12:00:33;;;;;;;9.67;8.77;;;;;;;;;;4936136;29;20221;-72
2021/06/22 12:03:20;;;;;;;10.33;9.33;;;;;;;;;;4935620;29;20205;-71
2021/06/22 12:06:06;;;;;;;10.30;9.60;;;;;;;;;;4936428;29;20208;-71
2021/06/22 12:08:51;;;;;;;11.30;10.30;;;;;;;;;;4954372;29;20709;-72
2021/06/22 12:11:36;;;;;;;10.63;9.60;;;;;;;;;;4955179;29;20253;-70
2021/06/22 12:14:21;;;;;;;10.20;9.50;;;;;;;;;;4954216;29;20224;-71
2021/06/22 12:17:14;;;;;;;12.53;10.30;;;;;;;;;;4955415;29;20264;-71
2021/06/22 12:19:58;;;;;;;10.13;9.33;;;;;;;;;;4954191;29;20232;-70
2021/06/22 12:22:43;;;;;;;10.23;9.17;;;;;;;;;;4954505;29;20212;-70
2021/06/22 12:25:33;;;;;;;9.83;8.97;;;;;;;;;;4955053;29;20576;-72
2021/06/22 12:28:18;;;;;;;9.57;8.77;;;;;;;;;;4954943;28;20217;-70
2021/06/22 12:31:04;;;;;;;9.57;8.57;;;;;;;;;;4954543;29;20205;-71
2021/06/22 12:33:51;;;;;;;10.10;8.43;;;;;;;;;;4952761;28;20692;-70
2021/06/22 12:36:36;;;;;;;10.83;7.93;;;;;;;;;;4954761;29;20727;-71
2021/06/22 12:39:21;;;;;;;8.03;7.23;;;;;;;;;;4954391;28;20427;-71
2021/06/22 12:42:07;;;;;;;11.33;10.20;;;;;;;;;;4954881;29;20211;-71
2021/06/22 12:44:52;;;;;;;11.97;7.30;;;;;;;;;;4953860;29;20212;-71
2021/06/22 12:47:37;;;;;;;7.97;6.30;;;;;;;;;;4953545;29;20208;-71
2021/06/22 12:50:24;;;;;;;7.23;6.40;;;;;;;;;;4954730;29;20284;-71
2021/06/22 12:53:10;;;;;;;9.03;6.40;;;;;;;;;;4953909;29;20231;-72
2021/06/22 12:56:06;;;;;;;7.10;6.40;;;;;;;;;;4954713;29;20212;-72
2021/06/22 12:58:53;;;;;;;7.40;6.70;;;;;;;;;;4954518;29;20229;-72
2021/06/22 13:01:38;;;;;;;5.80;5.30;;;;;;;;;;4954588;29;20217;-72
2021/06/22 13:04:37;;;;;;;6.57;5.70;;;;;;;;;;4953831;29;20209;-72
2021/06/22 13:07:26;;;;;;;5.43;5.03;;;;;;;;;;4954411;29;20217;-71
2021/06/22 13:10:13;;;;;;;11.23;5.40;;;;;;;;;;4954393;29;20221;-72
2021/06/22 13:13:05;;;;;;;6.07;5.07;;;;;;;;;;4953679;29;20214;-72
2021/06/22 13:15:50;;;;;;;6.73;5.80;;;;;;;;;;4954068;29;20681;-72
2021/06/22 13:18:54;;;;;;;6.57;5.63;;;;;;;;;;4954126;29;20319;-72
2021/06/22 13:21:43;;;;;;;5.63;5.13;;;;;;;;;;4953954;29;20697;-71
2021/06/22 13:24:46;;;;;;;8.33;5.03;;;;;;;;;;4953406;29;20212;-72
2021/06/22 13:27:32;;;;;;;6.23;4.93;;;;;;;;;;4953795;29;20217;-72
2021/06/22 13:30:18;;;;;;;7.78;5.38;;;;;;;;;;4952866;29;20489;-71
2021/06/22 13:33:04;;;;;;;9.37;5.40;;;;;;;;;;4953265;29;20244;-71
2021/06/22 13:35:52;;;;;;;7.70;5.83;;;;;;;;;;4953842;29;20208;-72
2021/06/22 13:38:37;;;;;;;6.77;5.30;;;;;;;;;;4953386;29;20224;-72
2021/06/22 13:41:24;;;;;;;8.20;5.07;;;;;;;;;;4954084;29;20313;-72
2021/06/22 13:44:09;;;;;;;7.67;5.20;;;;;;;;;;4952779;28;20209;-72
2021/06/22 13:46:54;;;;;;;5.87;5.17;;;;;;;;;;4953622;29;20558;-72
2021/06/22 13:49:39;;;;;;;5.87;4.40;;;;;;;;;;4953312;29;20685;-72
2021/06/22 13:52:24;;;;;;;6.43;5.07;;;;;;;;;;4953115;29;20209;-72
2021/06/22 13:55:09;;;;;;;6.50;4.20;;;;;;;;;;4953825;29;20342;-72
2021/06/22 13:57:55;;;;;;;7.43;4.20;;;;;;;;;;4953427;29;20212;-72
2021/06/22 14:00:41;;;;;;;4.80;4.17;;;;;;;;;;4953410;29;20269;-72
2021/06/22 14:03:26;;;;;;;5.33;4.40;;;;;;;;;;4952926;29;20213;-72
2021/06/22 14:06:11;;;;;;;8.13;4.80;;;;;;;;;;4953504;29;20204;-71
2021/06/22 14:08:56;;;;;;;6.90;4.60;;;;;;;;;;4953275;29;20228;-71
2021/06/22 14:11:41;;;;;;;6.17;4.40;;;;;;;;;;4953848;29;20809;-72
2021/06/22 14:14:27;;;;;;;8.70;4.70;;;;;;;;;;4953232;29;20772;-72
2021/06/22 14:17:12;;;;;;;5.83;4.40;;;;;;;;;;4953632;29;20323;-72
2021/06/22 14:19:57;;;;;;;6.03;4.03;;;;;;;;;;4953040;29;20595;-72
2021/06/22 14:22:42;;;;;;;6.83;4.17;;;;;;;;;;4952486;29;20725;-71
2021/06/22 14:25:28;;;;;;;8.57;4.45;;;;;;;;;;4952039;29;20773;-71
2021/06/22 14:28:17;;;;;;;5.27;4.33;;;;;;;;;;4953285;29;20332;-72
2021/06/22 14:31:05;;;;;;;7.33;4.13;;;;;;;;;;4953140;29;20283;-71
2021/06/22 14:33:49;;;;;;;8.10;4.57;;;;;;;;;;4952295;29;20228;-72
2021/06/22 14:36:34;;;;;;;8.30;4.40;;;;;;;;;;4952952;29;20337;-71
2021/06/22 14:39:19;;;;;;;7.30;3.70;;;;;;;;;;4952834;29;20280;-72
2021/06/22 14:42:04;;;;;;;10.50;4.67;;;;;;;;;;4953008;29;20288;-72
2021/06/22 14:44:49;;;;;;;6.97;4.40;;;;;;;;;;4952120;29;20712;-72
2021/06/22 14:47:36;;;;;;;6.83;4.43;;;;;;;;;;4952851;29;20227;-72
2021/06/22 14:50:21;;;;;;;7.33;4.07;;;;;;;;;;4952498;29;20307;-72
2021/06/22 14:53:09;;;;;;;5.70;4.17;;;;;;;;;;4952087;29;20251;-71
2021/06/22 14:55:54;;;;;;;7.33;4.90;;;;;;;;;;4952076;28;20519;-72
2021/06/22 14:58:38;;;;;;;5.50;3.80;;;;;;;;;;4952425;29;20376;-72
2021/06/22 15:01:24;;;;;;;10.03;4.60;;;;;;;;;;4952614;29;20212;-72
2021/06/22 15:04:10;;;;;;;6.07;4.83;;;;;;;;;;4951832;29;20229;-71
2021/06/22 15:06:56;;;;;;;7.37;4.33;;;;;;;;;;4952210;29;20265;-72
2021/06/22 15:09:41;;;;;;;10.80;4.90;;;;;;;;;;4952534;29;20301;-72
2021/06/22 15:12:26;;;;;;;9.87;4.57;;;;;;;;;;4952414;29;20204;-72
2021/06/22 15:15:11;;;;;;;5.40;4.20;;;;;;;;;;4952560;29;20209;-72
2021/06/22 15:17:57;;;;;;;5.72;4.30;;;;;;;;;;4951680;29;20413;-72
2021/06/22 15:20:44;;;;;;;6.87;4.17;;;;;;;;;;4952086;29;20228;-72
2021/06/22 15:23:29;;;;;;;4.83;3.90;;;;;;;;;;4951740;29;20216;-72
2021/06/22 15:26:14;;;;;;;4.70;3.70;;;;;;;;;;4952305;29;20284;-72
2021/06/22 15:28:59;;;;;;;7.13;3.80;;;;;;;;;;4952310;29;20269;-71
2021/06/22 15:31:43;;;;;;;8.83;4.33;;;;;;;;;;4952389;29;20346;-72
2021/06/22 15:34:28;;;;;;;5.63;4.63;;;;;;;;;;4951553;29;20205;-72
2021/06/22 15:37:14;;;;;;;6.47;4.30;;;;;;;;;;4952094;29;20283;-71
2021/06/22 15:40:01;;;;;;;5.80;4.03;;;;;;;;;;4952073;29;20560;-72
2021/06/22 15:42:47;;;;;;;7.37;4.30;;;;;;;;;;4951342;29;20236;-72
2021/06/22 15:45:32;;;;;;;6.23;4.37;;;;;;;;;;4952682;29;20208;-72
2021/06/22 15:48:17;;;;;;;6.13;4.17;;;;;;;;;;4952046;29;20205;-71
2021/06/22 15:51:02;;;;;;;7.60;5.00;;;;;;;;;;4951416;29;20416;-71
2021/06/22 15:53:48;;;;;;;10.73;5.27;;;;;;;;;;4951516;29;20229;-71
2021/06/22 15:56:33;;;;;;;9.17;4.97;;;;;;;;;;4952174;29;20204;-72
2021/06/22 15:59:19;;;;;;;11.37;4.80;;;;;;;;;;4952115;29;20228;-71
2021/06/22 16:02:04;;;;;;;9.30;5.20;;;;;;;;;;4952159;29;20213;-72
2021/06/22 16:04:49;;;;;;;5.33;4.60;;;;;;;;;;4951489;29;20252;-72
2021/06/22 16:07:35;;;;;;;7.97;4.77;;;;;;;;;;4954042;28;20244;-71
2021/06/22 16:10:21;;;;;;;17.27;5.70;;;;;;;;;;4955469;29;20224;-72
2021/06/22 16:13:06;;;;;;;7.28;5.20;;;;;;;;;;4953501;29;20441;-72
2021/06/22 16:15:51;;;;;;;8.73;5.07;;;;;;;;;;4955908;29;20216;-72
2021/06/22 16:18:36;;;;;;;7.37;4.47;;;;;;;;;;4955369;29;20235;-72
2021/06/22 16:21:20;;;;;;;7.50;4.43;;;;;;;;;;4955178;29;20277;-72
2021/06/22 16:24:05;;;;;;;7.03;4.70;;;;;;;;;;4954502;29;20208;-72
2021/06/22 16:26:52;;;;;;;8.57;4.70;;;;;;;;;;4955554;29;20696;-72
2021/06/22 16:29:36;;;;;;;6.30;4.90;;;;;;;;;;4955149;29;20236;-72
2021/06/22 16:32:22;;;;;;;11.20;4.90;;;;;;;;;;4955056;29;20938;-72
2021/06/22 16:35:09;;;;;;;8.30;4.70;;;;;;;;;;4954847;29;20204;-72
2021/06/22 16:37:54;;;;;;;7.47;4.30;;;;;;;;;;4955025;29;20211;-72
2021/06/22 16:40:39;;;;;;;13.43;5.30;;;;;;;;;;4954688;29;20228;-72
2021/06/22 16:43:25;;;;;;;7.27;4.90;;;;;;;;;;4954356;29;20208;-72
2021/06/22 16:46:10;;;;;;;8.87;5.10;;;;;;;;;;4955134;29;20671;-72
2021/06/22 16:48:55;;;;;;;7.97;5.07;;;;;;;;;;4955228;29;20991;-72
2021/06/22 16:51:40;;;;;;;7.20;4.97;;;;;;;;;;4954967;29;20233;-72
2021/06/22 16:54:25;;;;;;;15.97;5.77;;;;;;;;;;4954212;29;20204;-72
2021/06/22 16:57:10;;;;;;;7.40;4.90;;;;;;;;;;4954671;29;20212;-72
2021/06/22 16:59:56;;;;;;;8.20;5.30;;;;;;;;;;4954714;29;20228;-72
2021/06/22 17:02:41;;;;;;;9.97;5.33;;;;;;;;;;4953951;29;20293;-72
2021/06/22 17:05:26;;;;;;;8.73;6.25;;;;;;;;;;4954131;29;20452;-72
2021/06/22 17:08:11;;;;;;;9.57;6.60;;;;;;;;;;4954476;29;20335;-72
2021/06/22 17:10:55;;;;;;;7.60;6.70;;;;;;;;;;4954540;29;20332;-72
2021/06/22 17:13:40;;;;;;;7.47;6.63;;;;;;;;;;4953418;29;20205;-72
2021/06/22 17:16:26;;;;;;;10.30;6.70;;;;;;;;;;4954138;29;20212;-72
2021/06/22 17:19:11;;;;;;;8.90;7.20;;;;;;;;;;4972743;23;20246;-67
2021/06/22 17:21:56;;;;;;;8.63;6.80;;;;;;;;;;4992564;28;20599;-67
2021/06/22 17:24:41;;;;;;;16.20;7.47;;;;;;;;;;4992177;28;20210;-66
2021/06/22 17:27:26;;;;;;;6.90;6.07;;;;;;;;;;4992994;28;20211;-66
2021/06/22 17:30:12;;;;;;;9.00;6.83;;;;;;;;;;4980439;28;20224;-67
2021/06/22 17:33:00;;;;;;;12.27;7.03;;;;;;;;;;4973106;28;20706;-64
2021/06/22 17:35:45;;;;;;;8.60;7.13;;;;;;;;;;4973187;28;20597;-67
2021/06/22 17:38:30;;;;;;;8.77;7.00;;;;;;;;;;4973151;28;20219;-66
2021/06/22 17:41:15;;;;;;;10.17;6.77;;;;;;;;;;4973082;28;20232;-64
2021/06/22 17:44:00;;;;;;;7.33;6.57;;;;;;;;;;4972501;28;20586;-67
2021/06/22 17:46:45;;;;;;;12.33;6.97;;;;;;;;;;4972955;28;20212;-66
2021/06/22 17:49:31;;;;;;;9.83;6.80;;;;;;;;;;4973043;28;20234;-65
2021/06/22 17:52:16;;;;;;;7.73;6.93;;;;;;;;;;4972968;28;20295;-64
2021/06/22 17:55:02;;;;;;;14.63;7.17;;;;;;;;;;4972694;28;20200;-66
2021/06/22 17:57:47;;;;;;;9.70;7.47;;;;;;;;;;4973104;28;20681;-66
2021/06/22 18:00:33;;;;;;;9.48;7.43;;;;;;;;;;4971186;28;20439;-66
2021/06/22 18:03:18;;;;;;;8.90;7.10;;;;;;;;;;4972514;28;20721;-65
2021/06/22 18:06:05;;;;;;;8.60;7.20;;;;;;;;;;4972838;28;20207;-67
2021/06/22 18:08:50;;;;;;;9.17;7.50;;;;;;;;;;4972579;28;20235;-66
2021/06/22 18:11:35;;;;;;;9.70;7.67;;;;;;;;;;4972648;28;20786;-67
2021/06/22 18:14:20;;;;;;;8.83;7.03;;;;;;;;;;4971637;28;20211;-68
2021/06/22 18:17:05;;;;;;;7.47;6.67;;;;;;;;;;4972577;28;20331;-69
2021/06/22 18:19:50;;;;;;;8.97;7.43;;;;;;;;;;4972353;28;20240;-69
2021/06/22 18:22:36;;;;;;;9.87;7.50;;;;;;;;;;4971480;28;20340;-66
2021/06/22 18:25:21;;;;;;;10.43;7.57;;;;;;;;;;4972361;28;20212;-68
2021/06/22 18:28:06;;;;;;;8.00;6.97;;;;;;;;;;4972388;28;20211;-66
2021/06/22 18:30:52;;;;;;;11.30;7.27;;;;;;;;;;4971579;28;20307;-69
2021/06/22 18:33:38;;;;;;;9.45;7.95;;;;;;;;;;4970788;28;20414;-68
2021/06/22 18:36:23;;;;;;;8.67;6.97;;;;;;;;;;4972326;28;20228;-66
2021/06/22 18:39:09;;;;;;;10.43;7.43;;;;;;;;;;4972533;28;20272;-66
2021/06/22 18:41:54;;;;;;;10.90;7.90;;;;;;;;;;4971904;28;20251;-66
2021/06/22 18:44:39;;;;;;;7.93;6.53;;;;;;;;;;4971440;28;20302;-66
2021/06/22 18:47:25;;;;;;;11.03;7.73;;;;;;;;;;4972013;28;20588;-67
2021/06/22 18:50:11;;;;;;;12.77;7.40;;;;;;;;;;4971897;28;20375;-66
2021/06/22 18:52:55;;;;;;;11.05;7.80;;;;;;;;;;4970994;28;20422;-67
2021/06/22 18:55:42;;;;;;;7.70;6.90;;;;;;;;;;4972002;28;20395;-68
2021/06/22 18:58:27;;;;;;;10.33;7.53;;;;;;;;;;4971916;28;20208;-68
2021/06/22 19:01:12;;;;;;;8.80;7.90;;;;;;;;;;4971838;28;20219;-68
2021/06/22 19:03:57;;;;;;;11.00;8.00;;;;;;;;;;4971154;28;20612;-67
2021/06/22 19:06:42;;;;;;;8.97;8.10;;;;;;;;;;4971804;28;20708;-68
2021/06/22 19:09:29;;;;;;;8.97;7.30;;;;;;;;;;4971568;28;20710;-69
2021/06/22 19:12:15;;;;;;;8.63;7.73;;;;;;;;;;4971830;28;20728;-66
2021/06/22 19:15:00;;;;;;;9.07;7.47;;;;;;;;;;4972030;28;20573;-66
2021/06/22 19:17:45;;;;;;;9.17;7.87;;;;;;;;;;4972009;28;20575;-68
2021/06/22 19:20:30;;;;;;;11.33;8.00;;;;;;;;;;4971252;28;20381;-69
2021/06/22 19:23:15;;;;;;;18.50;8.73;;;;;;;;;;4971116;28;20259;-69
2021/06/22 19:26:00;;;;;;;8.60;7.50;;;;;;;;;;4971755;28;20208;-69
2021/06/22 19:28:48;;;;;;;10.20;8.27;;;;;;;;;;4971797;28;20208;-66
2021/06/22 19:31:33;;;;;;;8.70;7.80;;;;;;;;;;4971379;28;20205;-67
2021/06/22 19:34:18;;;;;;;8.57;7.50;;;;;;;;;;4970897;28;20717;-64
2021/06/22 19:37:03;;;;;;;9.10;7.43;;;;;;;;;;4971611;28;20684;-68
2021/06/22 19:39:49;;;;;;;9.87;7.43;;;;;;;;;;4971551;28;20223;-69
2021/06/22 19:42:35;;;;;;;9.67;7.30;;;;;;;;;;4972361;28;20243;-66
2021/06/22 19:45:21;;;;;;;13.73;7.87;;;;;;;;;;4975208;28;20210;-66
2021/06/22 19:48:06;;;;;;;10.00;7.37;;;;;;;;;;4974931;28;20616;-66
2021/06/22 19:50:51;;;;;;;9.60;7.40;;;;;;;;;;4974530;28;20232;-68
2021/06/22 19:53:36;;;;;;;27.23;9.30;;;;;;;;;;4964373;28;20331;-67
2021/06/22 19:56:21;;;;;;;13.60;8.60;;;;;;;;;;4974792;28;20204;-69
2021/06/22 19:59:06;;;;;;;10.00;7.73;;;;;;;;;;4973704;28;20228;-68
